Terminal Aerodrome Forecast
Issued by NWS Lake Charles, LA

Home | Current Version | Previous Version | Text Only | Print | Product List | Glossary On
Versions: 1 2 3 4 5 6 7 8 9 10 11 12 13 14 15
763
FTUS44 KLCH 251543 AAA
TAFARA
TAF AMD
KARA 251543Z 2516/2612 04007KT 5SM BR BKN007
     FM251700 04007KT P6SM VCTS SCT025CB BKN050
     FM260100 04003KT P6SM SCT060 BKN200=

USA.gov is the U.S. government's official web portal to all federal, state and local government web resources and services.